sensor_id;sensor_type;location;lat;lon;timestamp;pressure;altitude;pressure_sealevel;temperature;humidity
62976;BME280;49071;0.000;0.000;2023-04-08T06:05:54;101546.66;;;16.12;39.05
62976;BME280;49071;0.000;0.000;2023-04-08T06:08:54;101547.22;;;16.24;38.69
62976;BME280;49071;0.000;0.000;2023-04-08T06:11:55;101560.72;;;16.42;37.97
62976;BME280;49071;0.000;0.000;2023-04-08T06:14:56;101559.34;;;16.61;37.88
62976;BME280;49071;0.000;0.000;2023-04-08T06:17:56;101565.84;;;16.79;37.84
62976;BME280;49071;0.000;0.000;2023-04-08T06:20:56;101564.53;;;16.95;37.49
62976;BME280;49071;0.000;0.000;2023-04-08T06:23:58;101570.09;;;17.14;37.28
62976;BME280;49071;0.000;0.000;2023-04-08T06:26:58;101578.28;;;17.33;37.33
62976;BME280;49071;0.000;0.000;2023-04-08T06:29:58;101574.13;;;17.56;36.93
62976;BME280;49071;0.000;0.000;2023-04-08T06:32:59;101575.34;;;17.72;36.71
62976;BME280;49071;0.000;0.000;2023-04-08T06:36:02;101586.25;;;17.88;36.78
62976;BME280;49071;0.000;0.000;2023-04-08T06:39:03;101588.78;;;17.91;36.58
62976;BME280;49071;0.000;0.000;2023-04-08T06:42:03;101588.75;;;17.92;36.65
62976;BME280;49071;0.000;0.000;2023-04-08T06:45:03;101592.31;;;17.90;36.47
62976;BME280;49071;0.000;0.000;2023-04-08T06:48:04;101599.25;;;17.91;36.16
62976;BME280;49071;0.000;0.000;2023-04-08T06:51:05;101597.22;;;18.01;36.31
62976;BME280;49071;0.000;0.000;2023-04-08T06:54:06;101602.38;;;18.04;36.35
62976;BME280;49071;0.000;0.000;2023-04-08T06:57:09;101616.06;;;18.13;35.92
62976;BME280;49071;0.000;0.000;2023-04-08T07:00:09;101612.38;;;18.19;36.06
62976;BME280;49071;0.000;0.000;2023-04-08T07:03:09;101632.28;;;18.26;35.83
62976;BME280;49071;0.000;0.000;2023-04-08T07:06:10;101626.69;;;18.35;35.68
62976;BME280;49071;0.000;0.000;2023-04-08T07:09:11;101627.59;;;18.36;36.13
62976;BME280;49071;0.000;0.000;2023-04-08T07:12:11;101625.91;;;18.33;36.21
62976;BME280;49071;0.000;0.000;2023-04-08T07:15:11;101634.81;;;18.29;36.12
62976;BME280;49071;0.000;0.000;2023-04-08T07:18:11;101631.44;;;18.24;36.20
62976;BME280;49071;0.000;0.000;2023-04-08T07:21:12;101631.66;;;18.18;36.44
62976;BME280;49071;0.000;0.000;2023-04-08T07:24:12;101642.31;;;18.13;36.39
62976;BME280;49071;0.000;0.000;2023-04-08T07:27:12;101645.97;;;18.08;36.49
62976;BME280;49071;0.000;0.000;2023-04-08T07:30:13;101644.44;;;18.02;36.60
62976;BME280;49071;0.000;0.000;2023-04-08T07:33:13;101648.09;;;17.97;36.54
62976;BME280;49071;0.000;0.000;2023-04-08T07:36:14;101647.28;;;17.94;36.52
62976;BME280;49071;0.000;0.000;2023-04-08T07:39:17;101644.66;;;17.94;36.72
62976;BME280;49071;0.000;0.000;2023-04-08T07:42:17;101655.47;;;17.84;36.79
62976;BME280;49071;0.000;0.000;2023-04-08T07:45:17;101653.09;;;17.75;37.07
62976;BME280;49071;0.000;0.000;2023-04-08T07:48:17;101652.34;;;17.71;37.33
62976;BME280;49071;0.000;0.000;2023-04-08T07:51:17;101665.44;;;17.73;37.31
62976;BME280;49071;0.000;0.000;2023-04-08T07:54:18;101667.31;;;17.67;37.45
62976;BME280;49071;0.000;0.000;2023-04-08T07:57:18;101671.78;;;17.64;37.62
62976;BME280;49071;0.000;0.000;2023-04-08T08:00:18;101671.78;;;17.64;37.64
62976;BME280;49071;0.000;0.000;2023-04-08T08:03:20;101677.19;;;17.59;37.55
62976;BME280;49071;0.000;0.000;2023-04-08T08:06:20;101674.75;;;17.53;37.66
62976;BME280;49071;0.000;0.000;2023-04-08T08:09:21;101681.78;;;17.51;37.95
62976;BME280;49071;0.000;0.000;2023-04-08T08:12:21;101685.31;;;17.50;38.04
62976;BME280;49071;0.000;0.000;2023-04-08T08:15:21;101684.22;;;17.59;38.16
62976;BME280;49071;0.000;0.000;2023-04-08T08:18:21;101685.75;;;17.66;38.27
62976;BME280;49071;0.000;0.000;2023-04-08T08:21:22;101688.06;;;17.77;38.87
62976;BME280;49071;0.000;0.000;2023-04-08T08:24:22;101698.16;;;17.90;38.98
62976;BME280;49071;0.000;0.000;2023-04-08T08:27:22;101697.69;;;18.06;38.87
62976;BME280;49071;0.000;0.000;2023-04-08T08:30:23;101692.00;;;18.20;38.50
62976;BME280;49071;0.000;0.000;2023-04-08T08:33:24;101701.13;;;18.36;39.12
62976;BME280;49071;0.000;0.000;2023-04-08T08:36:24;101702.41;;;18.49;38.60
62976;BME280;49071;0.000;0.000;2023-04-08T08:39:26;101701.06;;;18.64;38.73
62976;BME280;49071;0.000;0.000;2023-04-08T08:42:26;101709.38;;;18.78;39.13
62976;BME280;49071;0.000;0.000;2023-04-08T08:45:26;101713.31;;;18.92;38.30
62976;BME280;49071;0.000;0.000;2023-04-08T08:48:26;101713.94;;;18.98;38.11
62976;BME280;49071;0.000;0.000;2023-04-08T08:51:27;101710.41;;;18.99;37.84
62976;BME280;49071;0.000;0.000;2023-04-08T08:54:27;101714.91;;;18.96;38.04
62976;BME280;49071;0.000;0.000;2023-04-08T08:57:27;101718.34;;;18.98;38.15
62976;BME280;49071;0.000;0.000;2023-04-08T09:00:34;101723.72;;;18.95;38.23
62976;BME280;49071;0.000;0.000;2023-04-08T09:03:34;101722.03;;;18.92;38.08
62976;BME280;49071;0.000;0.000;2023-04-08T09:06:35;101727.41;;;18.89;37.83
62976;BME280;49071;0.000;0.000;2023-04-08T09:09:51;101727.56;;;18.84;37.87
62976;BME280;49071;0.000;0.000;2023-04-08T09:12:52;101726.81;;;18.81;37.97
62976;BME280;49071;0.000;0.000;2023-04-08T09:16:03;101737.47;;;18.76;38.19
62976;BME280;49071;0.000;0.000;2023-04-08T09:19:07;101740.16;;;18.75;38.04
62976;BME280;49071;0.000;0.000;2023-04-08T09:22:10;101735.91;;;18.69;38.12
62976;BME280;49071;0.000;0.000;2023-04-08T09:25:26;101735.16;;;18.65;38.05
62976;BME280;49071;0.000;0.000;2023-04-08T09:28:27;101737.03;;;18.62;38.20
62976;BME280;49071;0.000;0.000;2023-04-08T09:31:28;101743.88;;;18.68;38.25
62976;BME280;49071;0.000;0.000;2023-04-08T09:34:28;101744.69;;;18.70;37.87
62976;BME280;49071;0.000;0.000;2023-04-08T09:37:31;101743.63;;;18.75;38.03
62976;BME280;49071;0.000;0.000;2023-04-08T09:40:32;101744.19;;;18.85;37.83
62976;BME280;49071;0.000;0.000;2023-04-08T09:43:35;101745.72;;;18.92;37.47
62976;BME280;49071;0.000;0.000;2023-04-08T09:46:39;101748.13;;;18.98;37.67
62976;BME280;49071;0.000;0.000;2023-04-08T09:49:43;101745.69;;;19.19;37.08
62976;BME280;49071;0.000;0.000;2023-04-08T09:52:46;101749.69;;;19.29;37.09
62976;BME280;49071;0.000;0.000;2023-04-08T09:55:49;101749.53;;;19.33;37.06
62976;BME280;49071;0.000;0.000;2023-04-08T09:58:51;101750.44;;;19.32;36.92
62976;BME280;49071;0.000;0.000;2023-04-08T10:01:53;101759.19;;;19.33;37.21
62976;BME280;49071;0.000;0.000;2023-04-08T10:04:55;101754.09;;;19.28;36.92
62976;BME280;49071;0.000;0.000;2023-04-08T10:07:57;101751.78;;;19.19;37.13
62976;BME280;49071;0.000;0.000;2023-04-08T10:10:58;101755.50;;;19.14;37.18
62976;BME280;49071;0.000;0.000;2023-04-08T10:13:58;101756.66;;;19.05;37.34
62976;BME280;49071;0.000;0.000;2023-04-08T10:27:10;101772.94;;;18.90;38.03
62976;BME280;49071;0.000;0.000;2023-04-08T10:33:33;101773.47;;;19.01;38.32
62976;BME280;49071;0.000;0.000;2023-04-08T10:36:33;101771.31;;;18.87;38.41
62976;BME280;49071;0.000;0.000;2023-04-08T10:39:33;101780.34;;;18.78;38.21
62976;BME280;49071;0.000;0.000;2023-04-08T10:42:35;101770.97;;;18.70;38.46
62976;BME280;49071;0.000;0.000;2023-04-08T10:45:35;101777.28;;;18.64;38.48
62976;BME280;49071;0.000;0.000;2023-04-08T10:48:36;101772.56;;;19.02;38.66
62976;BME280;49071;0.000;0.000;2023-04-08T10:51:36;101779.34;;;19.34;39.66
62976;BME280;49071;0.000;0.000;2023-04-08T10:54:37;101787.44;;;19.28;38.91
62976;BME280;49071;0.000;0.000;2023-04-08T10:57:37;101785.28;;;19.14;38.46
62976;BME280;49071;0.000;0.000;2023-04-08T11:00:39;101785.91;;;18.96;39.22
62976;BME280;49071;0.000;0.000;2023-04-08T11:03:41;101783.34;;;18.94;38.74
62976;BME280;49071;0.000;0.000;2023-04-08T11:06:42;101783.22;;;18.97;38.72
62976;BME280;49071;0.000;0.000;2023-04-08T11:09:42;101780.13;;;19.11;38.54
62976;BME280;49071;0.000;0.000;2023-04-08T11:12:43;101782.28;;;19.25;38.20
62976;BME280;49071;0.000;0.000;2023-04-08T11:15:43;101794.13;;;19.37;38.03
62976;BME280;49071;0.000;0.000;2023-04-08T11:18:43;101777.94;;;19.49;37.78
62976;BME280;49071;0.000;0.000;2023-04-08T11:21:44;101793.09;;;19.67;37.27
62976;BME280;49071;0.000;0.000;2023-04-08T11:24:45;101793.81;;;19.71;37.48
62976;BME280;49071;0.000;0.000;2023-04-08T11:27:46;101798.25;;;19.70;37.40
62976;BME280;49071;0.000;0.000;2023-04-08T11:30:47;101793.03;;;19.69;37.44
62976;BME280;49071;0.000;0.000;2023-04-08T11:33:48;101794.72;;;19.71;38.17
62976;BME280;49071;0.000;0.000;2023-04-08T11:36:49;101797.09;;;19.77;38.47
62976;BME280;49071;0.000;0.000;2023-04-08T11:39:49;101799.91;;;19.73;38.64
62976;BME280;49071;0.000;0.000;2023-04-08T11:42:50;101798.13;;;19.73;38.72
62976;BME280;49071;0.000;0.000;2023-04-08T11:45:50;101804.09;;;19.78;38.37
62976;BME280;49071;0.000;0.000;2023-04-08T11:49:24;101801.50;;;19.77;38.59
62976;BME280;49071;0.000;0.000;2023-04-08T11:52:17;101804.09;;;19.78;39.10
62976;BME280;49071;0.000;0.000;2023-04-08T11:55:30;101797.81;;;19.83;39.32
62976;BME280;49071;0.000;0.000;2023-04-08T11:58:30;101793.59;;;19.77;39.62
62976;BME280;49071;0.000;0.000;2023-04-08T12:01:30;101789.44;;;19.71;39.47
62976;BME280;49071;0.000;0.000;2023-04-08T12:04:30;101798.25;;;19.70;39.57
62976;BME280;49071;0.000;0.000;2023-04-08T12:07:31;101790.34;;;19.70;39.71
62976;BME280;49071;0.000;0.000;2023-04-08T12:10:31;101785.81;;;19.49;40.01
62976;BME280;49071;0.000;0.000;2023-04-08T12:13:31;101793.41;;;19.58;39.99
62976;BME280;49071;0.000;0.000;2023-04-08T12:16:31;101790.91;;;19.53;40.16
62976;BME280;49071;0.000;0.000;2023-04-08T12:19:32;101788.56;;;19.46;40.08
62976;BME280;49071;0.000;0.000;2023-04-08T12:22:32;101788.94;;;19.35;39.50
62976;BME280;49071;0.000;0.000;2023-04-08T12:25:32;101788.41;;;19.25;39.69
62976;BME280;49071;0.000;0.000;2023-04-08T12:28:32;101786.94;;;19.17;39.75
62976;BME280;49071;0.000;0.000;2023-04-08T12:31:34;101785.50;;;19.08;39.86
62976;BME280;49071;0.000;0.000;2023-04-08T12:34:34;101788.44;;;18.99;39.59
62976;BME280;49071;0.000;0.000;2023-04-08T12:37:34;101792.94;;;18.95;39.80
62976;BME280;49071;0.000;0.000;2023-04-08T12:40:35;101784.56;;;18.84;40.23
62976;BME280;49071;0.000;0.000;2023-04-08T12:43:35;101783.81;;;18.79;39.85
62976;BME280;49071;0.000;0.000;2023-04-08T12:46:35;101793.59;;;18.75;40.30
62976;BME280;49071;0.000;0.000;2023-04-08T12:49:35;101784.00;;;18.74;39.86
62976;BME280;49071;0.000;0.000;2023-04-08T12:52:36;101786.25;;;18.85;40.87
62976;BME280;49071;0.000;0.000;2023-04-08T12:55:36;101782.47;;;18.94;40.88
62976;BME280;49071;0.000;0.000;2023-04-08T12:58:36;101782.38;;;18.97;41.04
62976;BME280;49071;0.000;0.000;2023-04-08T13:01:36;101777.16;;;18.95;41.46
62976;BME280;49071;0.000;0.000;2023-04-08T13:04:36;101780.38;;;19.03;41.22
62976;BME280;49071;0.000;0.000;2023-04-08T13:07:37;101776.09;;;19.01;41.23
62976;BME280;49071;0.000;0.000;2023-04-08T13:10:37;101778.56;;;18.79;41.33
62976;BME280;49071;0.000;0.000;2023-04-08T13:13:37;101778.03;;;18.68;41.29
62976;BME280;49071;0.000;0.000;2023-04-08T13:16:37;101783.53;;;18.60;41.07
62976;BME280;49071;0.000;0.000;2023-04-08T13:19:38;101780.25;;;18.53;40.78
62976;BME280;49071;0.000;0.000;2023-04-08T13:22:38;101783.06;;;18.47;40.67
62976;BME280;49071;0.000;0.000;2023-04-08T13:25:40;101784.94;;;18.44;41.08
62976;BME280;49071;0.000;0.000;2023-04-08T13:28:40;101788.50;;;18.41;41.10
62976;BME280;49071;0.000;0.000;2023-04-08T13:31:40;101787.59;;;18.42;41.00
62976;BME280;49071;0.000;0.000;2023-04-08T13:34:40;101797.97;;;18.47;40.85
62976;BME280;49071;0.000;0.000;2023-04-08T13:37:41;101802.22;;;18.51;40.73
62976;BME280;49071;0.000;0.000;2023-04-08T13:40:41;101796.81;;;18.55;40.51
62976;BME280;49071;0.000;0.000;2023-04-08T13:43:42;101804.47;;;18.63;40.48
62976;BME280;49071;0.000;0.000;2023-04-08T13:46:42;101799.59;;;18.79;40.19
62976;BME280;49071;0.000;0.000;2023-04-08T13:49:43;101803.50;;;18.94;39.43
62976;BME280;49071;0.000;0.000;2023-04-08T13:52:43;101807.47;;;19.07;39.53
62976;BME280;49071;0.000;0.000;2023-04-08T13:55:43;101807.19;;;19.15;39.28
62976;BME280;49071;0.000;0.000;2023-04-08T13:58:43;101800.00;;;19.20;39.08
62976;BME280;49071;0.000;0.000;2023-04-08T14:01:44;101799.09;;;19.21;39.24
62976;BME280;49071;0.000;0.000;2023-04-08T14:04:44;101802.63;;;19.20;39.13
62976;BME280;49071;0.000;0.000;2023-04-08T14:07:44;101805.47;;;19.14;39.12
62976;BME280;49071;0.000;0.000;2023-04-08T14:10:45;101811.69;;;19.11;39.14
62976;BME280;49071;0.000;0.000;2023-04-08T14:13:45;101812.72;;;19.07;39.03
62976;BME280;49071;0.000;0.000;2023-04-08T14:16:45;101811.94;;;19.03;39.10
62976;BME280;49071;0.000;0.000;2023-04-08T14:19:45;101805.91;;;19.00;39.06
62976;BME280;49071;0.000;0.000;2023-04-08T14:22:46;101812.25;;;18.94;38.96
62976;BME280;49071;0.000;0.000;2023-04-08T14:25:46;101815.94;;;18.88;39.11
62976;BME280;49071;0.000;0.000;2023-04-08T14:28:46;101809.06;;;18.84;39.20
62976;BME280;49071;0.000;0.000;2023-04-08T14:31:46;101813.50;;;18.82;39.37
62976;BME280;49071;0.000;0.000;2023-04-08T14:34:46;101811.88;;;18.78;39.22
62976;BME280;49071;0.000;0.000;2023-04-08T14:37:47;101812.91;;;18.74;39.11
62976;BME280;49071;0.000;0.000;2023-04-08T14:40:48;101815.66;;;18.70;39.22
62976;BME280;49071;0.000;0.000;2023-04-08T14:43:48;101814.06;;;18.64;39.28
62976;BME280;49071;0.000;0.000;2023-04-08T14:46:48;101809.81;;;18.60;39.26
62976;BME280;49071;0.000;0.000;2023-04-08T14:49:48;101821.31;;;18.56;39.29
62976;BME280;49071;0.000;0.000;2023-04-08T14:52:48;101817.13;;;18.50;39.55
62976;BME280;49071;0.000;0.000;2023-04-08T14:55:49;101816.31;;;18.48;39.54
62976;BME280;49071;0.000;0.000;2023-04-08T14:58:49;101815.53;;;18.45;39.31
62976;BME280;49071;0.000;0.000;2023-04-08T15:01:49;101814.72;;;18.42;39.60
62976;BME280;49071;0.000;0.000;2023-04-08T15:04:49;101813.84;;;18.42;39.25
62976;BME280;49071;0.000;0.000;2023-04-08T15:07:49;101811.22;;;18.42;39.66
62976;BME280;49071;0.000;0.000;2023-04-08T15:10:50;101812.88;;;18.46;39.63
62976;BME280;49071;0.000;0.000;2023-04-08T15:13:50;101804.69;;;18.55;39.49
62976;BME280;49071;0.000;0.000;2023-04-08T15:16:50;101809.47;;;18.71;39.24
62976;BME280;49071;0.000;0.000;2023-04-08T15:19:51;101806.44;;;18.84;39.05
62976;BME280;49071;0.000;0.000;2023-04-08T15:22:51;101813.03;;;18.96;39.10
62976;BME280;49071;0.000;0.000;2023-04-08T15:25:51;101806.63;;;19.05;39.06
62976;BME280;49071;0.000;0.000;2023-04-08T15:28:53;101816.13;;;19.09;38.70
62976;BME280;49071;0.000;0.000;2023-04-08T15:31:53;101828.31;;;19.11;38.80
62976;BME280;49071;0.000;0.000;2023-04-08T15:34:53;101823.00;;;19.13;38.88
62976;BME280;49071;0.000;0.000;2023-04-08T15:37:53;101820.34;;;19.15;38.87
62976;BME280;49071;0.000;0.000;2023-04-08T15:40:54;101820.53;;;19.08;38.97
62976;BME280;49071;0.000;0.000;2023-04-08T15:43:54;101816.28;;;19.04;39.22
62976;BME280;49071;0.000;0.000;2023-04-08T15:46:54;101826.06;;;19.01;39.33
62976;BME280;49071;0.000;0.000;2023-04-08T15:49:55;101821.00;;;18.95;39.44
62976;BME280;49071;0.000;0.000;2023-04-08T15:52:55;101818.53;;;18.90;39.24
62976;BME280;49071;0.000;0.000;2023-04-08T15:55:55;101819.50;;;18.86;39.23
62976;BME280;49071;0.000;0.000;2023-04-08T15:58:56;101827.47;;;18.84;39.30
62976;BME280;49071;0.000;0.000;2023-04-08T16:01:56;101832.00;;;18.79;39.40
62976;BME280;49071;0.000;0.000;2023-04-08T16:04:56;101828.56;;;18.77;39.35
62976;BME280;49071;0.000;0.000;2023-04-08T16:07:56;101826.03;;;18.74;39.59
62976;BME280;49071;0.000;0.000;2023-04-08T16:11:00;101824.31;;;18.73;39.27
62976;BME280;49071;0.000;0.000;2023-04-08T16:14:01;101828.69;;;18.73;39.47
62976;BME280;49071;0.000;0.000;2023-04-08T16:17:03;101827.13;;;18.67;39.39
62976;BME280;49071;0.000;0.000;2023-04-08T16:20:03;101831.53;;;18.65;39.52
62976;BME280;49071;0.000;0.000;2023-04-08T16:23:04;101832.41;;;18.65;39.53
62976;BME280;49071;0.000;0.000;2023-04-08T16:26:04;101830.69;;;18.64;39.32
62976;BME280;49071;0.000;0.000;2023-04-08T16:29:06;101836.03;;;18.61;39.79
62976;BME280;49071;0.000;0.000;2023-04-08T16:32:07;101834.34;;;18.59;39.58
62976;BME280;49071;0.000;0.000;2023-04-08T16:35:08;101837.03;;;18.57;39.76
62976;BME280;49071;0.000;0.000;2023-04-08T16:38:08;101838.94;;;18.52;39.49
62976;BME280;49071;0.000;0.000;2023-04-08T16:41:08;101844.25;;;18.51;39.87
62976;BME280;49071;0.000;0.000;2023-04-08T16:44:09;101846.91;;;18.49;39.96
62976;BME280;49071;0.000;0.000;2023-04-08T16:47:09;101853.75;;;18.55;39.94
62976;BME280;49071;0.000;0.000;2023-04-08T16:50:09;101853.59;;;18.59;40.03
62976;BME280;49071;0.000;0.000;2023-04-08T16:53:10;101861.13;;;18.73;39.79
62976;BME280;49071;0.000;0.000;2023-04-08T16:56:11;101857.22;;;18.85;39.61
62976;BME280;49071;0.000;0.000;2023-04-08T16:59:11;101865.84;;;18.90;39.76
62976;BME280;49071;0.000;0.000;2023-04-08T17:02:12;101870.13;;;18.93;39.74
62976;BME280;49071;0.000;0.000;2023-04-08T17:05:12;101883.28;;;18.93;39.88
62976;BME280;49071;0.000;0.000;2023-04-08T17:08:12;101879.69;;;18.95;39.83
62976;BME280;49071;0.000;0.000;2023-04-08T17:11:13;101884.94;;;18.95;39.63
62976;BME280;49071;0.000;0.000;2023-04-08T17:14:13;101888.44;;;18.96;39.67
62976;BME280;49071;0.000;0.000;2023-04-08T17:17:13;101886.81;;;18.92;39.67
62976;BME280;49071;0.000;0.000;2023-04-08T17:20:13;101882.66;;;18.84;39.90
62976;BME280;49071;0.000;0.000;2023-04-08T17:23:14;101892.50;;;18.78;39.88
62976;BME280;49071;0.000;0.000;2023-04-08T17:26:15;101894.41;;;18.73;40.21
62976;BME280;49071;0.000;0.000;2023-04-08T17:29:15;101889.31;;;18.67;40.28
62976;BME280;49071;0.000;0.000;2023-04-08T17:32:15;101902.50;;;18.65;39.93
62976;BME280;49071;0.000;0.000;2023-04-08T17:35:15;101897.50;;;18.56;39.76
62976;BME280;49071;0.000;0.000;2023-04-08T17:38:16;101904.59;;;18.54;40.04
62976;BME280;49071;0.000;0.000;2023-04-08T17:41:16;101904.63;;;18.52;39.99
62976;BME280;49071;0.000;0.000;2023-04-08T17:44:16;101905.63;;;18.48;40.20
62976;BME280;49071;0.000;0.000;2023-04-08T17:47:16;101908.25;;;18.48;40.18
62976;BME280;49071;0.000;0.000;2023-04-08T17:50:17;101907.34;;;18.49;39.95
62976;BME280;49071;0.000;0.000;2023-04-08T17:53:17;101910.94;;;18.47;40.17
62976;BME280;49071;0.000;0.000;2023-04-08T17:56:17;101918.81;;;18.47;40.08
62976;BME280;49071;0.000;0.000;2023-04-08T17:59:17;101921.53;;;18.44;40.24
62976;BME280;49071;0.000;0.000;2023-04-08T18:02:17;101932.06;;;18.42;40.36
62976;BME280;49071;0.000;0.000;2023-04-08T18:05:17;101928.69;;;18.38;40.22
62976;BME280;49071;0.000;0.000;2023-04-08T18:08:18;101931.38;;;18.35;40.44
62976;BME280;49071;0.000;0.000;2023-04-08T18:11:19;101940.25;;;18.33;40.42
62976;BME280;49071;0.000;0.000;2023-04-08T18:14:20;101947.28;;;18.31;40.52
62976;BME280;49071;0.000;0.000;2023-04-08T18:17:21;101950.84;;;18.28;40.63
62976;BME280;49071;0.000;0.000;2023-04-08T18:20:21;101953.56;;;18.25;40.86
62976;BME280;49071;0.000;0.000;2023-04-08T18:23:21;101949.28;;;18.23;40.89
62976;BME280;49071;0.000;0.000;2023-04-08T18:26:21;101958.13;;;18.18;40.74
62976;BME280;49071;0.000;0.000;2023-04-08T18:29:21;101966.97;;;18.16;40.61
62976;BME280;49071;0.000;0.000;2023-04-08T18:32:22;101967.84;;;18.15;40.81
62976;BME280;49071;0.000;0.000;2023-04-08T18:35:22;101968.84;;;18.11;40.67
62976;BME280;49071;0.000;0.000;2023-04-08T18:38:23;101965.44;;;18.07;40.91
62976;BME280;49071;0.000;0.000;2023-04-08T18:41:23;101968.91;;;18.09;41.12
62976;BME280;49071;0.000;0.000;2023-04-08T18:44:26;101973.16;;;18.13;40.71
62976;BME280;49071;0.000;0.000;2023-04-08T18:47:27;101975.63;;;18.20;40.79
62976;BME280;49071;0.000;0.000;2023-04-08T18:50:27;101978.03;;;18.27;40.80
62976;BME280;49071;0.000;0.000;2023-04-08T18:53:27;101983.81;;;18.40;40.80
62976;BME280;49071;0.000;0.000;2023-04-08T18:56:28;101986.06;;;18.52;40.28
62976;BME280;49071;0.000;0.000;2023-04-08T18:59:28;101984.78;;;18.67;40.24
62976;BME280;49071;0.000;0.000;2023-04-08T19:02:28;101985.44;;;18.75;40.08
62976;BME280;49071;0.000;0.000;2023-04-08T19:05:29;101985.97;;;18.88;39.68
62976;BME280;49071;0.000;0.000;2023-04-08T19:08:31;101991.75;;;18.99;39.42
62976;BME280;49071;0.000;0.000;2023-04-08T19:11:32;101987.41;;;18.98;39.53
62976;BME280;49071;0.000;0.000;2023-04-08T19:14:32;101990.94;;;18.97;39.33
62976;BME280;49071;0.000;0.000;2023-04-08T19:17:32;101988.41;;;18.94;39.61
62976;BME280;49071;0.000;0.000;2023-04-08T19:20:33;101986.78;;;18.90;39.58
62976;BME280;49071;0.000;0.000;2023-04-08T19:23:33;101986.00;;;18.86;39.90
62976;BME280;49071;0.000;0.000;2023-04-08T19:26:33;101983.47;;;18.83;39.87
62976;BME280;49071;0.000;0.000;2023-04-08T19:29:35;101988.75;;;18.83;39.81
62976;BME280;49071;0.000;0.000;2023-04-08T19:32:35;101982.59;;;18.83;39.61
62976;BME280;49071;0.000;0.000;2023-04-08T19:35:35;101980.97;;;18.79;39.88
62976;BME280;49071;0.000;0.000;2023-04-08T19:38:36;101980.97;;;18.79;39.69
62976;BME280;49071;0.000;0.000;2023-04-08T19:41:36;101978.44;;;18.76;40.06
62976;BME280;49071;0.000;0.000;2023-04-08T19:44:36;101978.47;;;18.74;39.78
62976;BME280;49071;0.000;0.000;2023-04-08T19:47:40;101972.44;;;18.69;40.14
62976;BME280;49071;0.000;0.000;2023-04-08T19:50:43;101975.13;;;18.68;40.15
62976;BME280;49071;0.000;0.000;2023-04-08T19:53:44;101973.50;;;18.63;40.26
62976;BME280;49071;0.000;0.000;2023-04-08T19:56:44;101974.41;;;18.62;40.25
62976;BME280;49071;0.000;0.000;2023-04-08T19:59:44;101968.34;;;18.60;40.33
62976;BME280;49071;0.000;0.000;2023-04-08T20:02:46;101971.16;;;18.54;40.34
62976;BME280;49071;0.000;0.000;2023-04-08T20:05:47;101975.63;;;18.51;40.29
62976;BME280;49071;0.000;0.000;2023-04-08T20:08:47;101980.88;;;18.51;40.42
62976;BME280;49071;0.000;0.000;2023-04-08T20:11:48;101972.31;;;18.44;40.33
62976;BME280;49071;0.000;0.000;2023-04-08T20:14:49;101978.56;;;18.40;40.27
62976;BME280;49071;0.000;0.000;2023-04-08T20:17:49;101974.19;;;18.39;40.47
62976;BME280;49071;0.000;0.000;2023-04-08T20:20:49;101973.34;;;18.38;40.56
62976;BME280;49071;0.000;0.000;2023-04-08T20:23:50;101977.69;;;18.39;40.88
62976;BME280;49071;0.000;0.000;2023-04-08T20:26:50;101978.72;;;18.34;40.83
62976;BME280;49071;0.000;0.000;2023-04-08T20:29:51;101977.94;;;18.30;41.07
62976;BME280;49071;0.000;0.000;2023-04-08T20:32:51;101976.31;;;18.26;40.78
62976;BME280;49071;0.000;0.000;2023-04-08T20:35:51;101983.38;;;18.24;41.05
62976;BME280;49071;0.000;0.000;2023-04-08T20:38:55;101979.09;;;18.20;41.05
62976;BME280;49071;0.000;0.000;2023-04-08T20:41:55;101981.03;;;18.13;41.03
62976;BME280;49071;0.000;0.000;2023-04-08T20:44:57;101986.38;;;18.09;41.06
62976;BME280;49071;0.000;0.000;2023-04-08T20:47:57;101989.97;;;18.06;41.17
62976;BME280;49071;0.000;0.000;2023-04-08T20:50:57;101995.31;;;18.03;41.19
62976;BME280;49071;0.000;0.000;2023-04-08T20:53:57;102002.34;;;18.01;41.37
62976;BME280;49071;0.000;0.000;2023-04-08T20:56:58;101996.31;;;17.98;41.39
62976;BME280;49071;0.000;0.000;2023-04-08T20:59:58;101999.00;;;17.96;41.41
62976;BME280;49071;0.000;0.000;2023-04-08T21:02:58;101999.94;;;17.93;41.34
62976;BME280;49071;0.000;0.000;2023-04-08T21:05:59;102002.69;;;17.89;41.28
62976;BME280;49071;0.000;0.000;2023-04-08T21:09:00;102007.03;;;17.88;41.53
62976;BME280;49071;0.000;0.000;2023-04-08T21:12:00;102006.25;;;17.85;40.98
62976;BME280;49071;0.000;0.000;2023-04-08T21:15:00;102008.16;;;17.80;41.27
